Time;durP1;ratioP1;P1;durP2;ratioP2;P2;SDS_P1;SDS_P2;PMS_P1;PMS_P2;Temp;Humidity;BMP_temperature;BMP_pressure;BME280_temperature;BME280_humidity;BME280_pressure;Samples;Min_cycle;Max_cycle;Signal;HPM_P1;HPM_P2
2021/11/10 00:02:14;;;;;;;15.30;7.73;;;2.50;97.30;;;;;;5028353;28;20181;-83
2021/11/10 00:04:40;;;;;;;17.20;7.87;;;2.40;97.30;;;;;;5029757;28;20189;-82
2021/11/10 00:07:07;;;;;;;16.17;8.10;;;2.30;97.30;;;;;;5026275;28;20181;-82
2021/11/10 00:09:32;;;;;;;15.20;8.10;;;2.30;97.30;;;;;;5025040;28;20184;-83
2021/11/10 00:11:58;;;;;;;15.70;7.80;;;2.30;97.30;;;;;;5026836;28;20452;-83
2021/11/10 00:14:24;;;;;;;16.80;8.30;;;2.20;97.30;;;;;;5026511;28;20169;-83
2021/11/10 00:16:52;;;;;;;11.80;6.63;;;2.20;97.30;;;;;;5028816;28;20180;-83
2021/11/10 00:19:18;;;;;;;15.17;7.67;;;2.20;97.30;;;;;;5029941;28;20411;-82
2021/11/10 00:21:44;;;;;;;13.87;7.33;;;2.10;97.30;;;;;;5024419;28;20430;-82
2021/11/10 00:24:10;;;;;;;13.57;7.30;;;2.10;97.30;;;;;;5042733;28;20184;-82
2021/11/10 00:26:36;;;;;;;12.50;6.30;;;2.10;97.30;;;;;;5028875;28;20193;-82
2021/11/10 00:29:02;;;;;;;15.87;7.20;;;2.00;97.30;;;;;;5027130;28;20419;-83
2021/11/10 00:31:28;;;;;;;19.73;7.67;;;2.00;97.30;;;;;;5028710;28;20207;-83
2021/11/10 00:33:53;;;;;;;15.80;7.33;;;2.00;97.30;;;;;;5025547;28;20796;-83
2021/11/10 00:36:19;;;;;;;15.10;7.70;;;2.00;97.30;;;;;;5028272;28;20188;-82
2021/11/10 00:38:45;;;;;;;14.17;6.57;;;2.00;97.30;;;;;;5028252;28;20205;-82
2021/11/10 00:41:11;;;;;;;16.97;8.70;;;2.00;97.30;;;;;;5025779;28;20165;-82
2021/11/10 00:43:37;;;;;;;17.97;8.33;;;2.00;97.30;;;;;;5025478;28;20404;-82
2021/11/10 00:46:02;;;;;;;19.13;8.23;;;2.00;97.30;;;;;;5028161;28;20438;-82
2021/11/10 00:48:28;;;;;;;13.60;6.20;;;1.90;97.30;;;;;;5025588;28;20180;-83
2021/11/10 00:50:54;;;;;;;14.93;7.23;;;1.90;97.30;;;;;;5027289;28;20173;-83
2021/11/10 00:53:20;;;;;;;13.80;6.90;;;2.00;97.30;;;;;;5021613;28;20200;-83
2021/11/10 00:55:46;;;;;;;16.70;7.60;;;2.00;97.30;;;;;;5025952;28;20455;-83
2021/11/10 00:58:12;;;;;;;11.73;7.50;;;1.90;97.30;;;;;;5029230;28;20169;-82
2021/11/10 01:00:38;;;;;;;15.87;8.33;;;1.90;97.30;;;;;;5022560;28;20415;-83
2021/11/10 01:03:05;;;;;;;18.77;8.50;;;1.90;97.30;;;;;;5026364;28;20416;-83
2021/11/10 01:05:31;;;;;;;14.23;7.17;;;1.90;97.30;;;;;;5030191;28;20440;-82
2021/11/10 01:07:56;;;;;;;20.87;7.60;;;1.80;97.30;;;;;;5024510;28;20411;-83
2021/11/10 01:10:23;;;;;;;14.30;7.73;;;1.80;97.30;;;;;;5027098;28;20419;-84
2021/11/10 01:12:50;;;;;;;17.03;7.83;;;1.80;97.30;;;;;;5023939;28;20930;-83
2021/11/10 01:15:16;;;;;;;16.23;7.67;;;1.80;97.30;;;;;;5027362;28;20427;-82
2021/11/10 01:17:42;;;;;;;16.00;7.80;;;1.80;97.30;;;;;;5025116;28;20936;-82
2021/11/10 01:20:10;;;;;;;15.53;7.37;;;1.70;97.30;;;;;;5025241;28;20415;-83
2021/11/10 01:22:35;;;;;;;16.93;8.50;;;1.70;97.30;;;;;;5023889;28;20673;-82
2021/11/10 01:25:03;;;;;;;17.13;8.17;;;1.60;97.30;;;;;;5027319;28;20434;-83
2021/11/10 01:27:28;;;;;;;16.70;8.10;;;1.60;97.30;;;;;;5022485;28;20180;-83
2021/11/10 01:29:54;;;;;;;19.07;8.40;;;1.60;97.30;;;;;;5028618;28;20438;-83
2021/11/10 01:32:19;;;;;;;22.40;8.80;;;1.50;97.30;;;;;;5033901;28;20220;-82
2021/11/10 01:34:45;;;;;;;16.00;7.50;;;1.50;97.30;;;;;;5026336;28;20602;-83
2021/11/10 01:37:11;;;;;;;17.10;7.40;;;1.50;97.30;;;;;;5026613;28;20231;-82
2021/11/10 01:39:36;;;;;;;16.33;8.33;;;1.50;97.30;;;;;;5024318;28;20256;-82
2021/11/10 01:42:04;;;;;;;20.07;9.53;;;1.50;97.30;;;;;;5025246;28;20240;-83
2021/11/10 01:44:32;;;;;;;21.83;8.37;;;1.50;97.30;;;;;;5027066;28;20173;-82
2021/11/10 01:47:00;;;;;;;13.60;8.07;;;1.50;97.30;;;;;;5023393;28;20803;-82
2021/11/10 01:49:26;;;;;;;16.50;8.30;;;1.50;97.30;;;;;;5026262;28;20415;-82
2021/11/10 01:51:54;;;;;;;18.60;8.43;;;1.50;97.30;;;;;;5023387;28;20455;-82
2021/11/10 01:54:23;;;;;;;19.30;9.03;;;1.50;97.30;;;;;;5023595;28;20461;-81
2021/11/10 01:56:49;;;;;;;19.50;8.30;;;1.50;97.30;;;;;;5023130;28;20412;-83
2021/11/10 01:59:36;;;;;;;21.33;9.00;;;1.50;97.30;;;;;;5025634;28;20408;-82
2021/11/10 02:02:05;;;;;;;16.30;7.73;;;1.50;97.30;;;;;;5020791;28;20420;-81
2021/11/10 02:04:33;;;;;;;18.03;8.30;;;1.40;97.30;;;;;;5021307;28;20412;-82
2021/11/10 02:07:00;;;;;;;17.90;8.80;;;1.40;97.30;;;;;;5023183;28;20427;-82
2021/11/10 02:09:26;;;;;;;22.60;10.50;;;1.40;97.30;;;;;;5027576;28;20510;-82
2021/11/10 02:11:54;;;;;;;16.87;8.77;;;1.30;97.30;;;;;;5025703;28;20452;-83
2021/11/10 02:14:21;;;;;;;26.30;9.23;;;1.40;97.30;;;;;;5024527;28;20752;-83
2021/11/10 02:16:47;;;;;;;16.67;8.13;;;1.30;97.30;;;;;;5030213;28;20474;-83
2021/11/10 02:19:14;;;;;;;21.70;9.17;;;1.30;97.30;;;;;;5023547;28;20415;-83
2021/11/10 02:21:47;;;;;;;15.23;7.97;;;1.20;97.30;;;;;;5022619;28;20430;-82
2021/11/10 02:24:14;;;;;;;16.87;8.03;;;1.20;97.30;;;;;;5027317;28;20412;-83
2021/11/10 02:26:44;;;;;;;21.20;9.77;;;1.20;97.30;;;;;;5023661;28;20417;-83
2021/11/10 02:29:14;;;;;;;16.37;7.70;;;1.20;97.30;;;;;;5023908;28;20702;-83
2021/11/10 02:31:40;;;;;;;17.67;9.30;;;1.10;97.30;;;;;;5023650;28;20459;-82
2021/11/10 02:34:06;;;;;;;24.87;7.93;;;1.10;97.30;;;;;;5022416;28;20408;-82
2021/11/10 02:36:32;;;;;;;29.60;12.30;;;1.10;97.30;;;;;;5022404;28;20196;-81
2021/11/10 02:39:00;;;;;;;28.70;11.70;;;1.10;97.30;;;;;;5025136;28;20186;-83
2021/11/10 02:41:27;;;;;;;31.47;11.27;;;1.30;97.30;;;;;;5023094;28;20430;-83
2021/11/10 02:43:53;;;;;;;29.60;11.57;;;1.40;97.30;;;;;;5022216;28;20503;-83
2021/11/10 02:46:19;;;;;;;26.33;11.00;;;1.50;97.30;;;;;;5027879;28;20465;-83
2021/11/10 02:48:44;;;;;;;20.50;9.20;;;1.50;97.30;;;;;;5023749;28;20256;-82
2021/11/10 02:51:10;;;;;;;23.40;10.90;;;1.50;97.30;;;;;;5025582;28;20172;-82
2021/11/10 02:53:35;;;;;;;23.47;11.30;;;1.50;97.30;;;;;;5022747;28;20197;-81
2021/11/10 02:56:01;;;;;;;23.87;10.30;;;1.50;97.30;;;;;;5024844;28;20189;-82
2021/11/10 02:58:32;;;;;;;27.77;10.57;;;1.50;97.30;;;;;;5024025;28;20255;-82
2021/11/10 03:00:57;;;;;;;21.70;11.37;;;1.50;97.30;;;;;;5022580;28;20176;-82
2021/11/10 03:03:23;;;;;;;26.50;10.43;;;1.50;97.30;;;;;;5023223;28;20910;-82
2021/11/10 03:05:48;;;;;;;32.03;12.00;;;1.40;97.30;;;;;;5024421;28;20207;-82
2021/11/10 03:08:21;;;;;;;27.23;11.40;;;1.40;97.30;;;;;;5025689;28;20643;-82
2021/11/10 03:10:48;;;;;;;26.50;11.20;;;1.40;97.30;;;;;;5025449;28;20544;-82
2021/11/10 03:13:14;;;;;;;26.67;11.27;;;1.40;97.30;;;;;;5022681;28;20453;-82
2021/11/10 03:15:41;;;;;;;26.93;12.73;;;1.40;97.30;;;;;;5022983;28;20458;-82
2021/11/10 03:18:08;;;;;;;24.97;10.40;;;1.30;97.30;;;;;;5023038;28;20408;-82
2021/11/10 03:20:33;;;;;;;30.53;11.80;;;1.30;97.30;;;;;;5024867;28;20414;-82
2021/11/10 03:23:00;;;;;;;28.47;11.30;;;1.30;97.30;;;;;;5025273;28;20423;-82
2021/11/10 03:25:26;;;;;;;28.93;11.47;;;1.30;97.30;;;;;;5020987;28;20197;-82
2021/11/10 03:27:52;;;;;;;31.60;12.90;;;1.30;97.30;;;;;;5019432;28;20448;-82
2021/11/10 03:30:18;;;;;;;28.37;11.17;;;1.30;97.30;;;;;;5038285;28;20534;-82
2021/11/10 03:32:45;;;;;;;20.27;9.70;;;1.40;97.30;;;;;;5025226;28;21021;-82
2021/11/10 03:35:11;;;;;;;22.60;9.80;;;1.40;97.30;;;;;;5022893;28;20185;-82
2021/11/10 03:37:37;;;;;;;25.93;11.80;;;1.40;97.30;;;;;;5024042;28;20417;-82
2021/11/10 03:40:04;;;;;;;20.83;11.27;;;1.40;97.30;;;;;;5023106;28;20409;-82
2021/11/10 03:42:30;;;;;;;27.27;10.90;;;1.40;97.30;;;;;;5021283;28;20412;-81
2021/11/10 03:44:56;;;;;;;31.60;12.07;;;1.30;97.30;;;;;;5024800;28;20789;-82
2021/11/10 03:47:21;;;;;;;26.47;11.17;;;1.30;97.30;;;;;;5023148;28;20264;-81
2021/11/10 03:49:47;;;;;;;18.77;9.10;;;1.30;97.30;;;;;;5022595;28;20176;-83
2021/11/10 03:52:14;;;;;;;26.97;10.37;;;1.20;97.30;;;;;;5022425;28;20196;-81
2021/11/10 03:54:41;;;;;;;34.63;11.40;;;1.20;97.30;;;;;;5025121;28;20189;-83
2021/11/10 03:57:08;;;;;;;20.10;11.37;;;1.20;97.30;;;;;;5025112;28;20419;-83
2021/11/10 03:59:34;;;;;;;20.50;9.70;;;1.20;97.30;;;;;;5022955;28;20415;-82
2021/11/10 04:02:00;;;;;;;25.47;12.10;;;1.20;97.30;;;;;;5024455;28;20422;-82
2021/11/10 04:04:25;;;;;;;19.93;10.67;;;1.20;97.30;;;;;;5026980;28;20434;-83
2021/11/10 04:06:51;;;;;;;22.70;11.43;;;1.20;97.30;;;;;;5021214;28;20181;-82
2021/11/10 04:09:17;;;;;;;27.80;10.27;;;1.10;97.30;;;;;;5023754;28;20230;-82
2021/11/10 04:11:42;;;;;;;26.57;10.70;;;1.10;97.30;;;;;;5023163;28;20202;-82
2021/11/10 04:14:08;;;;;;;22.07;10.40;;;1.10;97.30;;;;;;5022866;28;20176;-81
2021/11/10 04:16:34;;;;;;;20.33;9.00;;;1.00;97.30;;;;;;5022179;28;20199;-82
2021/11/10 04:18:59;;;;;;;22.30;9.47;;;1.00;97.30;;;;;;5027177;28;20177;-82
2021/11/10 04:21:26;;;;;;;23.93;11.03;;;1.00;97.30;;;;;;5023087;28;20188;-82
2021/11/10 04:23:53;;;;;;;30.30;9.67;;;1.00;97.30;;;;;;5021969;28;20264;-82
2021/11/10 04:26:21;;;;;;;23.57;10.27;;;1.00;97.30;;;;;;5023927;28;20448;-83
2021/11/10 04:28:47;;;;;;;22.57;9.83;;;0.90;97.30;;;;;;5023676;28;20410;-82
2021/11/10 04:31:13;;;;;;;26.90;11.00;;;0.90;97.30;;;;;;5023619;28;20411;-82
2021/11/10 04:33:39;;;;;;;22.43;9.60;;;0.90;97.30;;;;;;5027351;28;20503;-83
2021/11/10 04:36:05;;;;;;;21.37;10.47;;;0.90;97.30;;;;;;5026447;28;20867;-83
2021/11/10 04:38:31;;;;;;;23.60;10.37;;;0.80;97.30;;;;;;5026082;28;20412;-81
2021/11/10 04:40:57;;;;;;;22.90;10.23;;;0.80;97.30;;;;;;5025584;28;20466;-83
2021/11/10 04:43:23;;;;;;;21.43;8.83;;;0.80;97.30;;;;;;5027228;28;20412;-82
2021/11/10 04:45:53;;;;;;;28.77;11.03;;;0.80;97.30;;;;;;5024422;28;20624;-83
2021/11/10 04:48:19;;;;;;;24.30;10.50;;;0.70;97.30;;;;;;5028152;28;20784;-82
2021/11/10 04:50:47;;;;;;;24.47;10.97;;;0.70;97.30;;;;;;5027257;28;20443;-84
2021/11/10 04:53:13;;;;;;;23.47;10.30;;;0.70;97.30;;;;;;5027035;28;20226;-81
2021/11/10 04:55:40;;;;;;;24.90;11.33;;;0.70;97.30;;;;;;5027721;28;20545;-82
2021/11/10 04:58:06;;;;;;;23.63;11.73;;;0.70;97.30;;;;;;5025664;28;20408;-81
2021/11/10 05:00:32;;;;;;;28.43;11.73;;;0.70;97.30;;;;;;5025431;28;20450;-83
2021/11/10 05:02:57;;;;;;;19.70;10.53;;;0.60;97.30;;;;;;5027885;28;20177;-84
2021/11/10 05:05:23;;;;;;;21.00;9.50;;;0.60;97.30;;;;;;5028872;28;20240;-82
2021/11/10 05:07:50;;;;;;;23.93;9.97;;;0.60;97.30;;;;;;5029131;28;20222;-82
2021/11/10 05:10:17;;;;;;;24.37;10.37;;;0.60;97.30;;;;;;5027848;28;20181;-83
2021/11/10 05:12:42;;;;;;;21.20;10.40;;;0.70;97.30;;;;;;5026800;28;21013;-82
2021/11/10 05:15:09;;;;;;;29.30;10.00;;;0.70;97.30;;;;;;5028832;28;20467;-82
2021/11/10 05:17:34;;;;;;;20.13;10.13;;;0.70;97.30;;;;;;5029227;28;20246;-82
2021/11/10 05:20:00;;;;;;;23.43;10.27;;;0.70;97.30;;;;;;5026096;28;20675;-82
2021/11/10 05:22:25;;;;;;;24.87;9.93;;;0.70;97.30;;;;;;5028035;28;20187;-83
2021/11/10 05:24:51;;;;;;;21.60;10.33;;;0.70;97.30;;;;;;5025114;28;20274;-84
2021/11/10 05:27:17;;;;;;;19.87;10.07;;;0.70;97.30;;;;;;5025210;28;20188;-83
2021/11/10 05:29:42;;;;;;;19.37;10.20;;;0.70;97.30;;;;;;5028401;28;20239;-82
2021/11/10 05:32:08;;;;;;;21.13;10.03;;;0.70;97.30;;;;;;5028947;28;20275;-82
2021/11/10 05:34:35;;;;;;;22.20;10.00;;;0.70;97.30;;;;;;5034918;28;20209;-82
2021/11/10 05:37:01;;;;;;;15.73;8.63;;;0.70;97.30;;;;;;5021097;28;20419;-82
2021/11/10 05:39:27;;;;;;;26.60;10.23;;;0.70;97.30;;;;;;5038285;28;20995;-83
2021/11/10 05:41:52;;;;;;;23.03;9.70;;;0.70;97.30;;;;;;5036596;28;20419;-83
2021/11/10 05:44:18;;;;;;;19.80;9.90;;;0.70;97.30;;;;;;5038069;28;20546;-83
2021/11/10 05:46:44;;;;;;;21.80;8.37;;;0.70;97.30;;;;;;5035826;28;20350;-82
2021/11/10 05:49:10;;;;;;;24.87;11.30;;;0.70;97.30;;;;;;5034931;28;20244;-83
2021/11/10 05:51:36;;;;;;;21.70;10.03;;;0.60;97.30;;;;;;5035506;28;20442;-82
2021/11/10 05:54:03;;;;;;;22.60;10.63;;;0.60;97.30;;;;;;5035406;28;20315;-83
2021/11/10 05:56:33;;;;;;;20.10;10.07;;;0.50;97.30;;;;;;5034811;28;20558;-83
2021/11/10 05:59:00;;;;;;;20.40;9.83;;;0.50;97.30;;;;;;5034227;28;20429;-83
2021/11/10 06:01:26;;;;;;;21.50;9.10;;;0.50;97.30;;;;;;5034886;28;20513;-83
2021/11/10 06:03:53;;;;;;;20.80;9.50;;;0.50;97.30;;;;;;5036369;28;20419;-84
2021/11/10 06:06:19;;;;;;;18.43;9.33;;;0.50;97.30;;;;;;5035938;28;20470;-83
2021/11/10 06:08:45;;;;;;;28.00;9.13;;;0.50;97.30;;;;;;5036009;28;20411;-83
2021/11/10 06:11:11;;;;;;;26.67;10.40;;;0.50;97.30;;;;;;5037704;28;20177;-83
2021/11/10 06:13:38;;;;;;;23.60;9.60;;;0.50;97.30;;;;;;5035286;28;20200;-83
2021/11/10 06:16:05;;;;;;;27.93;11.50;;;0.50;97.30;;;;;;5036020;28;20439;-83
2021/11/10 06:18:30;;;;;;;22.50;9.40;;;0.60;97.30;;;;;;5035413;28;20407;-83
2021/11/10 06:20:58;;;;;;;17.00;9.13;;;0.60;97.30;;;;;;5036039;28;20936;-83
2021/11/10 06:23:23;;;;;;;28.13;10.70;;;0.50;97.30;;;;;;5035498;28;20200;-83
2021/11/10 06:25:49;;;;;;;23.07;10.80;;;0.50;97.30;;;;;;5035884;28;20439;-84
2021/11/10 06:28:15;;;;;;;34.77;9.10;;;0.50;97.30;;;;;;5035975;28;20181;-83
2021/11/10 06:30:41;;;;;;;26.47;12.10;;;0.50;97.30;;;;;;5036967;28;20184;-83
2021/11/10 06:33:07;;;;;;;27.60;10.47;;;0.50;97.30;;;;;;5035562;28;20228;-83
2021/11/10 06:35:32;;;;;;;24.07;10.17;;;0.50;97.30;;;;;;5035799;28;20457;-83
2021/11/10 06:37:58;;;;;;;27.20;10.53;;;0.50;97.30;;;;;;5035793;28;20438;-83
2021/11/10 06:40:24;;;;;;;34.23;11.27;;;0.50;97.30;;;;;;5035491;28;20209;-83
2021/11/10 06:42:50;;;;;;;27.37;11.20;;;0.50;97.30;;;;;;5036002;28;20180;-83
2021/11/10 06:45:16;;;;;;;22.37;10.90;;;0.50;97.30;;;;;;5035170;28;20199;-83
2021/11/10 06:47:42;;;;;;;23.07;10.70;;;0.50;97.30;;;;;;5035448;28;20937;-83
2021/11/10 06:50:08;;;;;;;23.13;11.23;;;0.50;97.30;;;;;;5035488;28;20643;-83
2021/11/10 06:52:33;;;;;;;24.97;10.60;;;0.50;97.30;;;;;;5034825;28;20717;-83
2021/11/10 06:54:59;;;;;;;22.63;10.63;;;0.60;97.30;;;;;;5035310;28;20431;-83
2021/11/10 06:57:25;;;;;;;22.70;10.93;;;0.70;97.30;;;;;;5035246;28;20173;-83
2021/11/10 06:59:51;;;;;;;33.23;11.17;;;0.80;97.30;;;;;;5035079;28;20200;-83
2021/11/10 07:02:17;;;;;;;27.93;11.10;;;0.80;97.30;;;;;;5035719;28;20423;-83
2021/11/10 07:04:42;;;;;;;25.50;11.10;;;0.90;97.30;;;;;;5035683;28;20427;-83
2021/11/10 07:07:08;;;;;;;26.63;11.20;;;0.90;97.30;;;;;;5035212;28;20181;-83
2021/11/10 07:09:34;;;;;;;30.60;10.90;;;0.90;97.30;;;;;;5035275;28;20183;-83
2021/11/10 07:12:00;;;;;;;22.50;12.10;;;0.90;97.30;;;;;;5035485;28;20916;-83
2021/11/10 07:14:26;;;;;;;21.43;10.70;;;1.00;97.30;;;;;;5034898;28;20172;-83
2021/11/10 07:16:53;;;;;;;25.60;11.90;;;1.00;97.30;;;;;;5035248;28;20259;-83
2021/11/10 07:19:19;;;;;;;37.83;12.70;;;1.00;97.30;;;;;;5034935;28;20416;-83
2021/11/10 07:21:45;;;;;;;33.13;11.70;;;1.00;97.30;;;;;;5035227;28;20411;-83
2021/11/10 07:24:10;;;;;;;28.20;11.70;;;1.10;97.30;;;;;;5034959;28;20430;-83
2021/11/10 07:26:36;;;;;;;32.50;11.33;;;1.20;97.30;;;;;;5036752;28;20549;-83
2021/11/10 07:29:02;;;;;;;31.43;11.80;;;1.20;97.30;;;;;;5034483;28;20188;-83
2021/11/10 07:31:28;;;;;;;26.83;11.70;;;1.30;97.30;;;;;;5036077;28;20210;-83
2021/11/10 07:33:54;;;;;;;23.33;10.93;;;1.40;97.30;;;;;;5035478;28;20956;-82
2021/11/10 07:36:22;;;;;;;22.00;10.87;;;1.40;97.30;;;;;;5035211;28;20238;-83
2021/11/10 07:38:48;;;;;;;24.10;10.53;;;1.50;97.30;;;;;;5036042;28;20260;-83
2021/11/10 07:41:16;;;;;;;24.80;11.20;;;1.50;97.30;;;;;;5034723;28;20447;-83
2021/11/10 07:43:42;;;;;;;28.53;11.20;;;1.50;97.30;;;;;;5017617;28;20721;-83
2021/11/10 07:46:17;;;;;;;25.53;12.30;;;1.60;97.30;;;;;;5014360;28;20444;-83
2021/11/10 07:48:44;;;;;;;26.43;11.07;;;1.60;97.30;;;;;;5015255;28;20427;-83
2021/11/10 07:51:09;;;;;;;28.50;12.87;;;1.70;97.30;;;;;;5016179;28;20477;-83
2021/11/10 07:53:36;;;;;;;27.37;10.60;;;1.80;97.30;;;;;;5015430;28;20456;-83
2021/11/10 07:56:02;;;;;;;22.90;10.80;;;1.90;97.30;;;;;;5015069;28;20472;-82
2021/11/10 07:58:28;;;;;;;22.73;11.33;;;2.00;97.30;;;;;;5015002;28;20408;-82
2021/11/10 08:00:54;;;;;;;24.80;11.37;;;2.10;97.30;;;;;;5016530;28;20765;-83
2021/11/10 08:03:19;;;;;;;26.40;10.93;;;2.20;97.30;;;;;;5015400;28;20177;-83
2021/11/10 08:05:45;;;;;;;31.70;11.30;;;2.30;97.30;;;;;;5030750;28;20200;-83
2021/11/10 08:08:10;;;;;;;27.20;11.43;;;2.40;97.30;;;;;;5038446;28;20650;-83
2021/11/10 08:10:36;;;;;;;29.40;12.20;;;2.50;97.30;;;;;;5038510;28;20176;-82
2021/11/10 08:13:02;;;;;;;30.53;12.60;;;2.60;97.30;;;;;;5038494;28;20211;-83
2021/11/10 08:15:28;;;;;;;30.37;12.60;;;2.60;97.30;;;;;;5038282;28;20431;-83
2021/11/10 08:17:54;;;;;;;26.50;11.90;;;2.70;97.30;;;;;;5038827;28;20209;-83
2021/11/10 08:20:20;;;;;;;28.67;14.20;;;2.80;97.30;;;;;;5038254;28;20422;-83
2021/11/10 08:22:47;;;;;;;27.20;12.27;;;2.90;97.30;;;;;;5038779;28;20491;-83
2021/11/10 08:25:16;;;;;;;22.87;11.60;;;2.90;97.30;;;;;;5038368;28;20631;-84
2021/11/10 08:27:42;;;;;;;25.47;12.47;;;3.00;97.30;;;;;;5039225;28;20419;-83
2021/11/10 08:30:12;;;;;;;26.20;11.80;;;3.10;97.30;;;;;;5038281;28;20419;-83
2021/11/10 08:32:37;;;;;;;26.00;12.50;;;3.20;97.30;;;;;;5037290;28;20479;-83
2021/11/10 08:35:04;;;;;;;26.67;11.27;;;3.30;97.30;;;;;;5037953;28;20434;-83
2021/11/10 08:37:31;;;;;;;20.77;10.60;;;3.40;97.30;;;;;;5037344;28;20677;-83
2021/11/10 08:39:56;;;;;;;21.20;10.63;;;3.50;97.30;;;;;;5037946;28;20444;-83
2021/11/10 08:42:22;;;;;;;26.47;11.60;;;3.50;97.30;;;;;;5037400;28;20443;-83
2021/11/10 08:44:51;;;;;;;22.43;10.57;;;3.60;97.30;;;;;;5036851;28;20819;-83
2021/11/10 08:47:20;;;;;;;22.97;11.00;;;3.70;97.30;;;;;;5037288;28;20185;-83
2021/11/10 08:49:47;;;;;;;36.10;10.90;;;3.90;97.30;;;;;;5037756;28;20514;-83
2021/11/10 08:52:13;;;;;;;19.23;9.90;;;4.00;97.30;;;;;;5038376;28;20470;-83
2021/11/10 08:54:38;;;;;;;22.60;9.97;;;4.00;97.30;;;;;;5038543;28;20435;-81
2021/11/10 08:57:04;;;;;;;25.53;10.20;;;4.00;97.30;;;;;;5038229;28;20211;-82
2021/11/10 08:59:31;;;;;;;20.07;9.57;;;4.10;97.30;;;;;;5037634;28;20168;-81
2021/11/10 09:01:57;;;;;;;21.00;9.57;;;4.20;97.30;;;;;;5037330;28;20985;-80
2021/11/10 09:04:24;;;;;;;22.53;10.20;;;4.30;97.30;;;;;;5038481;28;20411;-80
2021/11/10 09:06:50;;;;;;;24.13;10.60;;;4.40;97.30;;;;;;5037169;28;20419;-81
2021/11/10 09:09:17;;;;;;;23.13;11.57;;;4.50;97.30;;;;;;5037582;28;20499;-81
2021/11/10 09:11:44;;;;;;;24.23;9.73;;;4.70;97.30;;;;;;5037354;28;20932;-82
2021/11/10 09:14:10;;;;;;;20.40;9.40;;;4.90;97.30;;;;;;5038312;28;20557;-81
2021/11/10 09:16:36;;;;;;;24.00;11.90;;;5.10;97.30;;;;;;5036418;28;20431;-81
2021/11/10 09:19:03;;;;;;;23.93;10.80;;;5.30;97.30;;;;;;5037560;28;20176;-80
2021/11/10 09:21:29;;;;;;;21.07;10.87;;;5.50;97.30;;;;;;5053438;28;20533;-83
2021/11/10 09:23:55;;;;;;;22.27;8.87;;;5.60;97.30;;;;;;5053599;28;20419;-82
2021/11/10 09:26:20;;;;;;;24.00;9.27;;;5.70;97.30;;;;;;5036803;28;20521;-81
2021/11/10 09:28:46;;;;;;;18.53;8.37;;;5.90;97.30;;;;;;5036729;28;20654;-81
2021/11/10 09:31:12;;;;;;;18.33;9.10;;;6.00;97.30;;;;;;5036220;28;20710;-82
2021/11/10 09:33:42;;;;;;;14.40;7.93;;;6.10;97.30;;;;;;5036114;28;20243;-80
2021/11/10 09:36:08;;;;;;;22.93;9.03;;;6.20;97.30;;;;;;5036375;28;20203;-80
2021/11/10 09:38:35;;;;;;;18.67;8.87;;;6.40;97.30;;;;;;5035657;28;20485;-82
2021/11/10 09:41:01;;;;;;;17.23;8.10;;;6.50;97.30;;;;;;5016906;28;20964;-81
2021/11/10 09:43:36;;;;;;;20.80;9.27;;;6.70;97.30;;;;;;5016733;28;20420;-81
2021/11/10 09:46:06;;;;;;;22.30;9.13;;;6.90;97.30;;;;;;5016507;28;20232;-80
2021/11/10 09:48:32;;;;;;;20.33;8.13;;;7.00;97.30;;;;;;5016422;28;20424;-81
2021/11/10 09:50:59;;;;;;;22.67;7.53;;;7.10;97.30;;;;;;5028741;28;20423;-81
2021/11/10 09:53:25;;;;;;;16.10;7.30;;;7.30;97.30;;;;;;5035656;28;20459;-82
2021/11/10 09:55:51;;;;;;;28.43;7.60;;;7.30;97.30;;;;;;5035859;28;20507;-81
2021/11/10 09:58:17;;;;;;;16.73;7.27;;;7.40;97.30;;;;;;5036015;28;20481;-81
2021/11/10 10:00:47;;;;;;;16.17;7.03;;;7.50;97.30;;;;;;5035224;28;20419;-81
2021/11/10 10:03:14;;;;;;;17.20;7.67;;;7.60;97.30;;;;;;5035472;28;20180;-81
2021/11/10 10:05:40;;;;;;;17.70;8.10;;;7.70;97.30;;;;;;5035125;28;20969;-81
2021/11/10 10:08:06;;;;;;;14.60;7.90;;;7.80;97.30;;;;;;5035343;28;20948;-82
2021/11/10 10:10:34;;;;;;;16.40;8.40;;;7.80;97.30;;;;;;5036127;28;20477;-81
2021/11/10 10:13:01;;;;;;;14.27;6.50;;;7.80;97.30;;;;;;5035433;28;20995;-82
2021/11/10 10:15:30;;;;;;;19.10;7.17;;;8.00;97.30;;;;;;5035504;28;20990;-81
2021/11/10 10:17:58;;;;;;;15.80;8.23;;;8.00;97.30;;;;;;5035770;28;20425;-81
2021/11/10 10:20:30;;;;;;;16.10;7.53;;;8.00;97.30;;;;;;5035891;28;20418;-81
2021/11/10 10:23:01;;;;;;;25.97;8.67;;;8.10;97.30;;;;;;5037258;28;20423;-81
2021/11/10 10:25:42;;;;;;;14.33;7.40;;;8.20;97.30;;;;;;5035363;28;20443;-81
2021/11/10 10:28:11;;;;;;;13.37;7.37;;;8.20;97.30;;;;;;5035610;28;20854;-81
2021/11/10 10:30:43;;;;;;;12.53;6.77;;;8.20;97.30;;;;;;5035194;28;20430;-80
2021/11/10 10:33:15;;;;;;;17.13;9.20;;;8.20;97.30;;;;;;5035391;28;20494;-81
2021/11/10 10:35:59;;;;;;;15.70;7.33;;;8.30;97.30;;;;;;5035333;28;20443;-81
2021/11/10 10:38:32;;;;;;;16.80;7.60;;;8.40;97.30;;;;;;5035460;28;20426;-82
2021/11/10 10:41:01;;;;;;;16.40;7.60;;;8.50;97.30;;;;;;5036301;28;20395;-81
2021/11/10 10:43:28;;;;;;;26.03;6.80;;;8.60;97.30;;;;;;5034965;28;20453;-82
2021/11/10 10:45:58;;;;;;;19.10;9.17;;;8.60;97.30;;;;;;5034911;28;20435;-81
2021/11/10 10:48:26;;;;;;;18.60;6.90;;;8.80;97.30;;;;;;5035194;28;20416;-82
2021/11/10 10:50:55;;;;;;;17.20;6.87;;;8.90;97.30;;;;;;5034999;28;20421;-81
2021/11/10 10:53:46;;;;;;;16.87;8.03;;;9.00;97.30;;;;;;5035040;28;20455;-81
2021/11/10 10:56:34;;;;;;;17.60;7.10;;;9.10;97.30;;;;;;5035592;28;20438;-81
2021/11/10 10:59:00;;;;;;;14.70;6.80;;;9.20;97.30;;;;;;5034619;28;20411;-82
2021/11/10 11:01:36;;;;;;;16.17;6.70;;;9.20;97.30;;;;;;5034862;28;20415;-82
2021/11/10 11:04:15;;;;;;;17.93;6.90;;;9.30;97.30;;;;;;5034840;28;20172;-82
2021/11/10 11:06:45;;;;;;;14.73;6.50;;;9.50;97.30;;;;;;5034784;28;20961;-81
2021/11/10 11:09:47;;;;;;;17.13;7.90;;;9.60;97.30;;;;;;5019160;28;20417;-82
2021/11/10 11:12:25;;;;;;;12.57;5.90;;;9.50;97.30;;;;;;5014592;28;20460;-81
2021/11/10 11:15:02;;;;;;;18.00;6.80;;;9.50;96.80;;;;;;5016543;28;20959;-80
2021/11/10 11:17:32;;;;;;;13.47;6.20;;;9.60;96.60;;;;;;5034786;28;20418;-81
2021/11/10 11:20:03;;;;;;;17.50;7.43;;;9.60;95.90;;;;;;5035240;28;20411;-79
2021/11/10 11:22:34;;;;;;;13.53;6.70;;;9.60;96.30;;;;;;5036955;28;20396;-82
2021/11/10 11:25:17;;;;;;;13.20;6.90;;;9.70;96.30;;;;;;5035146;28;20439;-80
2021/11/10 11:27:57;;;;;;;14.43;7.13;;;9.60;95.80;;;;;;5035117;28;20565;-80
2021/11/10 11:30:25;;;;;;;12.77;6.67;;;9.60;95.90;;;;;;5036184;28;20947;-79
2021/11/10 11:32:57;;;;;;;11.47;5.97;;;9.60;96.30;;;;;;5035865;28;20483;-81
2021/11/10 11:35:25;;;;;;;16.90;7.97;;;9.70;96.00;;;;;;5037871;28;20442;-80
2021/11/10 11:37:51;;;;;;;13.43;6.40;;;9.70;95.80;;;;;;5038417;28;20482;-80
2021/11/10 11:40:19;;;;;;;27.70;7.33;;;9.70;96.00;;;;;;5041840;28;20793;-80
2021/11/10 11:42:46;;;;;;;14.63;6.77;;;9.80;96.10;;;;;;5041575;28;20415;-81
2021/11/10 11:45:12;;;;;;;16.00;6.83;;;9.80;95.80;;;;;;5038350;28;20526;-79
2021/11/10 11:47:39;;;;;;;12.13;6.30;;;9.80;95.90;;;;;;5042455;28;20426;-79
2021/11/10 11:50:05;;;;;;;12.70;7.07;;;9.70;95.90;;;;;;5041795;28;20953;-79
2021/11/10 11:52:36;;;;;;;12.30;6.30;;;9.80;96.10;;;;;;5041455;28;20466;-81
2021/11/10 11:55:22;;;;;;;17.87;7.40;;;9.80;95.90;;;;;;5042200;28;20442;-79
2021/11/10 11:58:00;;;;;;;16.10;8.17;;;9.80;96.80;;;;;;5042450;28;20477;-79
2021/11/10 12:00:26;;;;;;;13.50;7.30;;;9.80;96.30;;;;;;5042086;28;20414;-80
2021/11/10 12:02:52;;;;;;;19.50;8.27;;;9.80;96.60;;;;;;5041709;28;20419;-80
2021/11/10 12:05:24;;;;;;;14.57;6.77;;;9.70;96.60;;;;;;5041877;28;20237;-79
2021/11/10 12:07:58;;;;;;;16.73;8.70;;;9.70;97.00;;;;;;5042052;28;20418;-79
2021/11/10 12:10:28;;;;;;;15.30;6.83;;;9.70;97.00;;;;;;5042229;28;20414;-80
2021/11/10 12:13:21;;;;;;;21.83;7.60;;;9.80;97.00;;;;;;5041316;28;20512;-79
2021/11/10 12:16:07;;;;;;;13.77;6.80;;;9.90;97.10;;;;;;5041094;28;20506;-81
2021/11/10 12:18:47;;;;;;;15.33;7.50;;;10.00;96.40;;;;;;5041820;28;20415;-79
2021/11/10 12:21:21;;;;;;;17.40;7.67;;;10.00;95.90;;;;;;5042588;28;20494;-81
2021/11/10 12:23:52;;;;;;;16.33;7.30;;;10.10;96.00;;;;;;5042799;28;20403;-80
2021/11/10 12:26:19;;;;;;;15.23;7.40;;;10.40;96.00;;;;;;5041991;28;20442;-80
2021/11/10 12:28:57;;;;;;;13.63;6.87;;;10.60;95.60;;;;;;5042112;28;20421;-79
2021/11/10 12:31:42;;;;;;;16.47;7.00;;;10.80;95.30;;;;;;5042292;28;20490;-80
2021/11/10 12:34:14;;;;;;;13.23;7.00;;;10.90;93.90;;;;;;5043076;28;20419;-80
2021/11/10 12:37:03;;;;;;;12.60;7.00;;;11.10;94.30;;;;;;5042637;28;20449;-80
2021/11/10 12:39:34;;;;;;;17.37;7.13;;;11.20;94.00;;;;;;5041849;28;20817;-80
2021/11/10 12:42:12;;;;;;;13.97;7.70;;;11.40;93.70;;;;;;5042931;28;20423;-80
2021/11/10 12:44:50;;;;;;;14.50;7.33;;;11.40;92.80;;;;;;5042783;28;20513;-80
2021/11/10 12:47:19;;;;;;;16.00;6.90;;;11.50;92.80;;;;;;5043215;28;20784;-80